Time;durP1;ratioP1;P1;durP2;ratioP2;P2;SDS_P1;SDS_P2;PMS_P1;PMS_P2;Temp;Humidity;BMP_temperature;BMP_pressure;BME280_temperature;BME280_humidity;BME280_pressure;Samples;Min_cycle;Max_cycle;Signal;HPM_P1;HPM_P2
2023/05/16 00:01:40;;;;;;;5.15;3.90;;;;;;;;;;5075724;28;20049;-62
2023/05/16 00:04:08;;;;;;;5.30;4.00;;;;;;;;;;5075445;28;20467;-62
2023/05/16 00:06:35;;;;;;;6.07;3.97;;;;;;;;;;5075385;28;20049;-62
2023/05/16 00:09:03;;;;;;;7.43;4.07;;;;;;;;;;5075365;28;20093;-62
2023/05/16 00:11:30;;;;;;;5.57;4.00;;;;;;;;;;5075358;28;20048;-62
2023/05/16 00:14:00;;;;;;;6.50;3.90;;;;;;;;;;5075583;28;20082;-62
2023/05/16 00:16:28;;;;;;;10.07;4.47;;;;;;;;;;5075331;28;20556;-62
2023/05/16 00:18:59;;;;;;;5.47;3.75;;;;;;;;;;5075203;28;20605;-62
2023/05/16 00:21:27;;;;;;;4.68;3.60;;;;;;;;;;5075440;28;20371;-62
2023/05/16 00:23:54;;;;;;;5.50;3.90;;;;;;;;;;5075139;28;20075;-62
2023/05/16 00:26:22;;;;;;;5.57;3.78;;;;;;;;;;5057100;28;20075;-62
2023/05/16 00:28:49;;;;;;;6.22;3.97;;;;;;;;;;5075089;28;20036;-62
2023/05/16 00:31:17;;;;;;;6.53;3.80;;;;;;;;;;5057189;28;20452;-62
2023/05/16 00:33:45;;;;;;;6.28;3.72;;;;;;;;;;5057144;28;20098;-62
2023/05/16 00:36:12;;;;;;;4.75;3.88;;;;;;;;;;5074932;28;20075;-62
2023/05/16 00:38:40;;;;;;;5.47;4.07;;;;;;;;;;5074910;28;20037;-62
2023/05/16 00:41:07;;;;;;;5.63;3.90;;;;;;;;;;5056961;28;20074;-62
2023/05/16 00:43:36;;;;;;;6.45;3.90;;;;;;;;;;5055989;28;20040;-62
2023/05/16 00:46:04;;;;;;;5.95;3.55;;;;;;;;;;5056740;28;20425;-62
2023/05/16 00:48:31;;;;;;;8.13;4.30;;;;;;;;;;5056799;28;20040;-62
2023/05/16 00:51:00;;;;;;;7.90;4.03;;;;;;;;;;5074490;28;20044;-62
2023/05/16 00:53:28;;;;;;;5.35;3.70;;;;;;;;;;5056768;28;20563;-62
2023/05/16 00:55:56;;;;;;;5.20;3.65;;;;;;;;;;5074596;28;20123;-62
2023/05/16 00:58:24;;;;;;;9.02;3.97;;;;;;;;;;5056551;28;20449;-62
2023/05/16 01:00:52;;;;;;;6.00;4.03;;;;;;;;;;5056403;28;20075;-62
2023/05/16 01:03:19;;;;;;;5.40;3.95;;;;;;;;;;5056596;28;20045;-63
2023/05/16 01:05:48;;;;;;;7.70;4.13;;;;;;;;;;5056531;28;20049;-63
2023/05/16 01:08:16;;;;;;;7.88;4.18;;;;;;;;;;5056350;28;20106;-63
2023/05/16 01:10:46;;;;;;;6.45;4.10;;;;;;;;;;5056241;28;20116;-63
2023/05/16 01:13:29;;;;;;;7.28;3.90;;;;;;;;;;5056320;28;20055;-63
2023/05/16 01:16:04;;;;;;;5.30;3.70;;;;;;;;;;5074075;28;20047;-63
2023/05/16 01:18:50;;;;;;;6.28;3.67;;;;;;;;;;5056459;28;20040;-63
2023/05/16 01:21:24;;;;;;;7.53;4.30;;;;;;;;;;5056214;28;20048;-63
2023/05/16 01:23:53;;;;;;;;;;;;;;;;;;5074436;28;20478;-62
2023/05/16 01:26:27;;;;;;;6.55;4.05;;;;;;;;;;5056249;28;19920;-62
2023/05/16 01:28:54;;;;;;;5.53;3.47;;;;;;;;;;5055947;28;20051;-62
2023/05/16 01:31:22;;;;;;;6.72;3.92;;;;;;;;;;5073966;28;20111;-62
2023/05/16 01:33:51;;;;;;;4.72;3.95;;;;;;;;;;5055971;28;20114;-62
2023/05/16 01:36:21;;;;;;;5.68;3.80;;;;;;;;;;5055514;28;20517;-62
2023/05/16 01:39:02;;;;;;;5.53;3.72;;;;;;;;;;5073733;28;20040;-62
2023/05/16 01:41:39;;;;;;;5.53;3.85;;;;;;;;;;5056108;28;20045;-62
2023/05/16 01:44:36;;;;;;;4.75;3.55;;;;;;;;;;5055731;28;20052;-62
2023/05/16 01:47:07;;;;;;;5.40;3.80;;;;;;;;;;5039109;28;20127;-62
2023/05/16 01:49:39;;;;;;;4.80;3.60;;;;;;;;;;5055525;28;20036;-62
2023/05/16 01:52:30;;;;;;;6.45;4.03;;;;;;;;;;5055551;28;20075;-62
2023/05/16 01:54:58;;;;;;;5.75;3.70;;;;;;;;;;5045428;28;20127;-62
2023/05/16 01:57:28;;;;;;;6.15;3.80;;;;;;;;;;5055381;28;20045;-62
2023/05/16 01:59:58;;;;;;;5.70;3.60;;;;;;;;;;5055352;28;20068;-62
2023/05/16 02:02:25;;;;;;;4.88;3.65;;;;;;;;;;5055200;28;20044;-62
2023/05/16 02:04:52;;;;;;;5.00;3.88;;;;;;;;;;5073241;28;20041;-62
2023/05/16 02:07:20;;;;;;;5.72;3.47;;;;;;;;;;5060390;28;20044;-62
2023/05/16 02:09:47;;;;;;;4.60;3.80;;;;;;;;;;5093457;28;20429;-62
2023/05/16 02:12:15;;;;;;;4.90;3.92;;;;;;;;;;5093610;28;20052;-62
2023/05/16 02:14:43;;;;;;;6.43;3.88;;;;;;;;;;5075187;28;20040;-61
2023/05/16 02:17:10;;;;;;;6.07;3.78;;;;;;;;;;5058971;28;20081;-62
2023/05/16 02:19:38;;;;;;;7.15;4.20;;;;;;;;;;5093273;28;20040;-62
2023/05/16 02:22:06;;;;;;;5.10;3.75;;;;;;;;;;5093465;28;20047;-62
2023/05/16 02:24:33;;;;;;;4.70;3.88;;;;;;;;;;5093160;28;20039;-62
2023/05/16 02:27:01;;;;;;;9.30;3.97;;;;;;;;;;5074839;28;20482;-61
2023/05/16 02:29:29;;;;;;;8.32;3.90;;;;;;;;;;5058344;28;20040;-62
2023/05/16 02:31:57;;;;;;;6.00;4.22;;;;;;;;;;5074880;28;20508;-61
2023/05/16 02:34:24;;;;;;;7.13;3.92;;;;;;;;;;5074958;28;20047;-62
2023/05/16 02:36:51;;;;;;;5.90;3.63;;;;;;;;;;5074727;28;20568;-62
2023/05/16 02:39:21;;;;;;;8.60;4.13;;;;;;;;;;5074699;28;20044;-62
2023/05/16 02:41:50;;;;;;;7.43;3.72;;;;;;;;;;5074885;28;20048;-62
2023/05/16 02:44:18;;;;;;;6.63;3.90;;;;;;;;;;5074756;28;20040;-62
2023/05/16 02:46:45;;;;;;;6.35;3.78;;;;;;;;;;5074423;28;20043;-62
2023/05/16 02:49:13;;;;;;;5.97;3.97;;;;;;;;;;5092916;28;20032;-62
2023/05/16 02:51:40;;;;;;;6.20;4.07;;;;;;;;;;5074661;28;20047;-62
2023/05/16 02:54:08;;;;;;;5.47;4.07;;;;;;;;;;5074793;28;20473;-62
2023/05/16 02:56:36;;;;;;;6.00;3.95;;;;;;;;;;5092548;28;20044;-63
2023/05/16 02:59:04;;;;;;;5.50;4.05;;;;;;;;;;5074580;28;20047;-62
2023/05/16 03:01:31;;;;;;;5.53;4.30;;;;;;;;;;5074583;28;20048;-62
2023/05/16 03:03:59;;;;;;;6.90;4.50;;;;;;;;;;5074765;28;20055;-62
2023/05/16 03:06:27;;;;;;;7.63;3.85;;;;;;;;;;5074518;28;20540;-62
2023/05/16 03:08:54;;;;;;;6.90;3.97;;;;;;;;;;5096810;28;20076;-62
2023/05/16 03:11:22;;;;;;;6.72;4.20;;;;;;;;;;5062287;28;20036;-62
2023/05/16 03:13:50;;;;;;;8.63;4.53;;;;;;;;;;5078661;28;20079;-62
2023/05/16 03:16:17;;;;;;;5.88;4.22;;;;;;;;;;5078539;28;20046;-62
2023/05/16 03:18:45;;;;;;;6.70;4.40;;;;;;;;;;5078577;28;20051;-62
2023/05/16 03:21:12;;;;;;;6.72;4.35;;;;;;;;;;5078424;28;20040;-62
2023/05/16 03:23:40;;;;;;;5.32;4.10;;;;;;;;;;5078267;28;20055;-62
2023/05/16 03:26:08;;;;;;;6.47;4.47;;;;;;;;;;5078427;28;20089;-62
2023/05/16 03:28:35;;;;;;;6.60;4.35;;;;;;;;;;5096446;28;20102;-62
2023/05/16 03:31:02;;;;;;;7.45;4.57;;;;;;;;;;5078193;28;20482;-62
2023/05/16 03:33:30;;;;;;;8.18;4.05;;;;;;;;;;5096401;28;20036;-63
2023/05/16 03:35:57;;;;;;;7.65;4.47;;;;;;;;;;5096133;28;20052;-63
2023/05/16 03:38:25;;;;;;;7.60;4.60;;;;;;;;;;5096142;28;20059;-63
2023/05/16 03:40:53;;;;;;;6.03;4.00;;;;;;;;;;5095885;28;20057;-63
2023/05/16 03:43:20;;;;;;;6.10;4.38;;;;;;;;;;5096167;28;20498;-63
2023/05/16 03:45:48;;;;;;;5.63;4.50;;;;;;;;;;5078387;28;20060;-63
2023/05/16 03:48:15;;;;;;;8.30;4.88;;;;;;;;;;5095951;28;20490;-62
2023/05/16 03:50:43;;;;;;;7.70;4.38;;;;;;;;;;5096186;28;20043;-63
2023/05/16 03:53:11;;;;;;;6.22;4.80;;;;;;;;;;5095961;28;20071;-63
2023/05/16 03:55:38;;;;;;;6.82;4.47;;;;;;;;;;5095888;28;20486;-63
2023/05/16 03:58:06;;;;;;;6.68;4.40;;;;;;;;;;5095890;28;20444;-63
2023/05/16 04:00:35;;;;;;;11.73;4.93;;;;;;;;;;5077547;28;20490;-63
2023/05/16 04:03:03;;;;;;;6.43;4.35;;;;;;;;;;5095743;28;20118;-62
2023/05/16 04:05:31;;;;;;;6.82;4.40;;;;;;;;;;5095797;28;20040;-61
2023/05/16 04:07:58;;;;;;;5.90;4.40;;;;;;;;;;5095817;28;20454;-61
2023/05/16 04:10:27;;;;;;;6.18;4.28;;;;;;;;;;5095610;28;20040;-61
2023/05/16 04:12:54;;;;;;;7.88;4.72;;;;;;;;;;5095647;28;20101;-61
2023/05/16 04:15:22;;;;;;;6.78;4.60;;;;;;;;;;5095581;28;20068;-61
2023/05/16 04:17:50;;;;;;;5.65;4.40;;;;;;;;;;5095821;28;20074;-61
2023/05/16 04:20:18;;;;;;;5.13;4.10;;;;;;;;;;5095850;28;20111;-61
2023/05/16 04:22:46;;;;;;;9.82;5.15;;;;;;;;;;5095549;28;20504;-61
2023/05/16 04:25:14;;;;;;;6.90;4.63;;;;;;;;;;5095322;28;20059;-61
2023/05/16 04:27:41;;;;;;;7.88;4.72;;;;;;;;;;5095086;28;20126;-61
2023/05/16 04:30:10;;;;;;;11.88;5.30;;;;;;;;;;5095339;28;20134;-61
2023/05/16 04:32:38;;;;;;;7.80;5.20;;;;;;;;;;5095091;28;20096;-62
2023/05/16 04:35:07;;;;;;;8.23;5.28;;;;;;;;;;5095018;28;20044;-61
2023/05/16 04:37:36;;;;;;;7.28;4.97;;;;;;;;;;5094887;28;20055;-61
2023/05/16 04:40:05;;;;;;;8.63;4.60;;;;;;;;;;5095023;28;20040;-61
2023/05/16 04:42:33;;;;;;;8.70;4.90;;;;;;;;;;5070412;28;20169;-62
2023/05/16 04:45:02;;;;;;;7.95;4.95;;;;;;;;;;5074767;28;20038;-61
2023/05/16 04:47:30;;;;;;;7.55;4.80;;;;;;;;;;5074661;28;20036;-61
2023/05/16 04:49:58;;;;;;;7.10;4.40;;;;;;;;;;5074656;28;20075;-61
2023/05/16 04:52:25;;;;;;;5.90;4.30;;;;;;;;;;5074658;28;20119;-61
2023/05/16 04:54:52;;;;;;;5.72;4.10;;;;;;;;;;5074653;28;20115;-61
2023/05/16 04:57:20;;;;;;;8.13;5.10;;;;;;;;;;5076949;28;20541;-61
2023/05/16 04:59:47;;;;;;;6.30;4.50;;;;;;;;;;5085359;28;20036;-61
2023/05/16 05:02:15;;;;;;;9.15;5.05;;;;;;;;;;5079518;28;20048;-61
2023/05/16 05:04:42;;;;;;;7.65;4.95;;;;;;;;;;5074496;28;20120;-61
2023/05/16 05:07:10;;;;;;;18.75;5.13;;;;;;;;;;5074436;28;20144;-61
2023/05/16 05:09:37;;;;;;;18.77;6.43;;;;;;;;;;5074252;28;20068;-61
2023/05/16 05:12:06;;;;;;;9.00;5.03;;;;;;;;;;5074296;28;20068;-61
2023/05/16 05:14:34;;;;;;;9.90;4.65;;;;;;;;;;5056489;28;20075;-61
2023/05/16 05:17:01;;;;;;;16.25;5.20;;;;;;;;;;5074112;28;20044;-61
2023/05/16 05:19:29;;;;;;;8.35;4.55;;;;;;;;;;5056114;28;20086;-61
2023/05/16 05:21:57;;;;;;;6.65;4.38;;;;;;;;;;5055981;28;20080;-61
2023/05/16 05:24:24;;;;;;;6.90;4.38;;;;;;;;;;5055916;28;20049;-61
2023/05/16 05:26:52;;;;;;;6.43;4.68;;;;;;;;;;5073937;28;20056;-61
2023/05/16 05:29:19;;;;;;;6.90;4.30;;;;;;;;;;5074201;28;20325;-61
2023/05/16 05:31:47;;;;;;;6.43;4.47;;;;;;;;;;5066707;28;20051;-61
2023/05/16 05:34:15;;;;;;;6.57;4.50;;;;;;;;;;5074846;28;20060;-62
2023/05/16 05:36:43;;;;;;;5.97;4.20;;;;;;;;;;5092596;28;20094;-61
2023/05/16 05:39:10;;;;;;;6.22;4.60;;;;;;;;;;5093065;28;20047;-61
2023/05/16 05:41:38;;;;;;;7.20;4.63;;;;;;;;;;5093973;28;20151;-61
2023/05/16 05:44:06;;;;;;;9.43;4.45;;;;;;;;;;5093785;28;20501;-61
2023/05/16 05:46:33;;;;;;;9.00;4.13;;;;;;;;;;5093683;28;20071;-61
2023/05/16 05:49:01;;;;;;;7.97;4.57;;;;;;;;;;5089871;28;20036;-60
2023/05/16 05:51:29;;;;;;;7.05;4.25;;;;;;;;;;5073040;28;20048;-61
2023/05/16 05:53:56;;;;;;;7.22;4.28;;;;;;;;;;5073377;28;20565;-61
2023/05/16 05:56:24;;;;;;;7.55;4.30;;;;;;;;;;5055341;28;20040;-61
2023/05/16 05:58:51;;;;;;;8.70;4.40;;;;;;;;;;5073832;28;20545;-61
2023/05/16 06:01:23;;;;;;;7.47;4.60;;;;;;;;;;5073224;28;20047;-61
2023/05/16 06:03:50;;;;;;;4.47;3.80;;;;;;;;;;5073213;28;20045;-61
2023/05/16 06:06:18;;;;;;;10.30;4.00;;;;;;;;;;5055202;28;20076;-62
2023/05/16 06:08:45;;;;;;;5.60;3.97;;;;;;;;;;5073282;28;20524;-61
2023/05/16 06:11:13;;;;;;;4.85;3.22;;;;;;;;;;5073032;28;20028;-61
2023/05/16 06:13:40;;;;;;;6.63;3.85;;;;;;;;;;5072964;28;20055;-62
2023/05/16 06:16:08;;;;;;;7.18;4.10;;;;;;;;;;5072917;28;20127;-61
2023/05/16 06:18:35;;;;;;;5.57;4.13;;;;;;;;;;5072758;28;20051;-61
2023/05/16 06:21:03;;;;;;;6.30;3.80;;;;;;;;;;5072450;28;20112;-61
2023/05/16 06:23:31;;;;;;;7.20;3.67;;;;;;;;;;5072569;28;20064;-61
2023/05/16 06:25:58;;;;;;;4.97;3.90;;;;;;;;;;5075732;28;20090;-61
2023/05/16 06:28:25;;;;;;;7.68;4.32;;;;;;;;;;5092557;28;20444;-61
2023/05/16 06:30:53;;;;;;;6.88;4.28;;;;;;;;;;5074649;28;20051;-61
2023/05/16 06:33:21;;;;;;;5.32;3.85;;;;;;;;;;5092470;28;20036;-61
2023/05/16 06:35:48;;;;;;;6.57;3.97;;;;;;;;;;5092241;28;20494;-61
2023/05/16 06:38:16;;;;;;;7.45;4.10;;;;;;;;;;5074725;28;20036;-61
2023/05/16 06:40:43;;;;;;;6.53;4.00;;;;;;;;;;5092289;28;20040;-62
2023/05/16 06:43:11;;;;;;;6.55;4.03;;;;;;;;;;5091868;28;20047;-61
2023/05/16 06:45:38;;;;;;;11.32;4.30;;;;;;;;;;5092479;28;20095;-61
2023/05/16 06:48:06;;;;;;;7.05;4.00;;;;;;;;;;5092553;28;20042;-61
2023/05/16 06:50:34;;;;;;;7.78;4.60;;;;;;;;;;5074532;28;20055;-61
2023/05/16 06:53:03;;;;;;;8.88;4.07;;;;;;;;;;5092339;28;20040;-62
2023/05/16 06:55:31;;;;;;;11.27;6.63;;;;;;;;;;5092168;28;20140;-62
2023/05/16 06:57:59;;;;;;;9.60;5.82;;;;;;;;;;5092589;28;20073;-61
2023/05/16 07:00:26;;;;;;;7.10;4.35;;;;;;;;;;5074655;28;20111;-61
2023/05/16 07:02:54;;;;;;;9.73;4.10;;;;;;;;;;5092486;28;20109;-62
2023/05/16 07:05:21;;;;;;;8.95;4.70;;;;;;;;;;5092316;28;20044;-61
2023/05/16 07:07:49;;;;;;;6.00;3.80;;;;;;;;;;5091909;28;20056;-61
2023/05/16 07:10:16;;;;;;;8.32;4.10;;;;;;;;;;5074721;28;20075;-61
2023/05/16 07:12:44;;;;;;;10.60;4.63;;;;;;;;;;5092056;28;20048;-61
2023/05/16 07:15:11;;;;;;;6.38;3.80;;;;;;;;;;5092509;28;20071;-61
2023/05/16 07:17:39;;;;;;;6.50;4.00;;;;;;;;;;5074438;28;20044;-61
2023/05/16 07:20:10;;;;;;;8.38;3.90;;;;;;;;;;5073090;28;20063;-62
2023/05/16 07:22:38;;;;;;;8.20;4.13;;;;;;;;;;5070964;28;20413;-62
2023/05/16 07:25:11;;;;;;;8.55;3.70;;;;;;;;;;5071556;28;20045;-61
2023/05/16 07:27:43;;;;;;;6.82;4.03;;;;;;;;;;5071975;28;20510;-61
2023/05/16 07:30:12;;;;;;;7.63;3.80;;;;;;;;;;5071652;28;20119;-61
2023/05/16 07:32:40;;;;;;;9.57;4.03;;;;;;;;;;5072114;28;20444;-61
2023/05/16 07:35:08;;;;;;;7.85;3.80;;;;;;;;;;5073973;28;20045;-61
2023/05/16 07:37:35;;;;;;;7.30;3.95;;;;;;;;;;5054203;28;20540;-61
2023/05/16 07:40:03;;;;;;;7.72;3.88;;;;;;;;;;5071796;28;20621;-61
2023/05/16 07:42:31;;;;;;;10.85;3.80;;;;;;;;;;5054110;28;20131;-61
2023/05/16 07:44:59;;;;;;;7.10;3.88;;;;;;;;;;5074982;28;20543;-62
2023/05/16 07:47:26;;;;;;;7.90;4.07;;;;;;;;;;5073387;28;20044;-62
2023/05/16 07:49:54;;;;;;;4.88;3.75;;;;;;;;;;5071801;28;20540;-61
2023/05/16 07:52:21;;;;;;;8.27;4.35;;;;;;;;;;5074284;28;20036;-61
2023/05/16 07:54:49;;;;;;;7.88;4.07;;;;;;;;;;5092410;28;20040;-60
2023/05/16 07:57:17;;;;;;;8.20;4.28;;;;;;;;;;5095816;28;20044;-62
2023/05/16 07:59:45;;;;;;;6.78;4.40;;;;;;;;;;5095634;28;20409;-62
2023/05/16 08:02:13;;;;;;;7.40;4.05;;;;;;;;;;5081346;28;20043;-61
2023/05/16 08:04:41;;;;;;;9.15;4.13;;;;;;;;;;5083725;28;20120;-61
2023/05/16 08:07:08;;;;;;;7.30;3.92;;;;;;;;;;5081353;28;21366;-62
2023/05/16 08:09:36;;;;;;;8.13;4.10;;;;;;;;;;5074265;28;20503;-62
2023/05/16 08:12:03;;;;;;;10.05;4.70;;;;;;;;;;5077749;28;20033;-62
2023/05/16 08:14:35;;;;;;;8.85;4.30;;;;;;;;;;5077526;28;20115;-62
2023/05/16 08:17:03;;;;;;;8.95;4.20;;;;;;;;;;5094976;28;20070;-62
2023/05/16 08:19:31;;;;;;;8.95;4.63;;;;;;;;;;5095360;28;20050;-62
2023/05/16 08:21:59;;;;;;;8.05;4.28;;;;;;;;;;5095434;28;20093;-62
2023/05/16 08:24:26;;;;;;;7.25;3.90;;;;;;;;;;5095119;28;20040;-62
2023/05/16 08:26:54;;;;;;;6.55;4.30;;;;;;;;;;5095111;28;20036;-62
2023/05/16 08:29:21;;;;;;;7.85;4.30;;;;;;;;;;5094985;28;20493;-62
2023/05/16 08:31:49;;;;;;;9.35;4.35;;;;;;;;;;5095137;28;20110;-62
2023/05/16 08:34:17;;;;;;;5.93;4.15;;;;;;;;;;5095150;28;20047;-62
2023/05/16 08:36:45;;;;;;;8.23;3.88;;;;;;;;;;5094825;28;20413;-62
2023/05/16 08:39:12;;;;;;;7.32;4.00;;;;;;;;;;5095296;28;20048;-62
2023/05/16 08:41:40;;;;;;;8.02;4.10;;;;;;;;;;5094954;28;20047;-62
2023/05/16 08:44:09;;;;;;;9.52;4.35;;;;;;;;;;5084314;28;20508;-61
2023/05/16 08:46:39;;;;;;;6.75;3.97;;;;;;;;;;5074587;28;20040;-62
2023/05/16 08:49:08;;;;;;;8.80;4.25;;;;;;;;;;5074417;28;20040;-62
2023/05/16 08:51:37;;;;;;;7.85;4.30;;;;;;;;;;5074660;28;20048;-62
2023/05/16 08:54:08;;;;;;;7.78;4.45;;;;;;;;;;5074575;28;20040;-62
2023/05/16 08:56:37;;;;;;;7.07;4.32;;;;;;;;;;5074645;28;20043;-62
2023/05/16 08:59:05;;;;;;;8.05;4.32;;;;;;;;;;5074444;28;20088;-62
2023/05/16 09:01:33;;;;;;;6.95;4.10;;;;;;;;;;5074585;28;20040;-62
2023/05/16 09:04:03;;;;;;;7.72;4.10;;;;;;;;;;5074290;28;20486;-62
2023/05/16 09:06:30;;;;;;;6.47;3.97;;;;;;;;;;5073693;28;20039;-62
2023/05/16 09:08:58;;;;;;;9.90;4.32;;;;;;;;;;5074327;28;20038;-62
2023/05/16 09:11:25;;;;;;;6.88;4.20;;;;;;;;;;5074278;28;20094;-62
2023/05/16 09:13:53;;;;;;;7.43;4.03;;;;;;;;;;5056437;28;20041;-62
2023/05/16 09:16:20;;;;;;;6.68;4.20;;;;;;;;;;5074145;28;20394;-62
2023/05/16 09:18:55;;;;;;;6.93;4.07;;;;;;;;;;5074184;28;20041;-62
2023/05/16 09:21:33;;;;;;;6.57;4.20;;;;;;;;;;5074141;28;20053;-62
2023/05/16 09:24:04;;;;;;;7.93;3.80;;;;;;;;;;5056392;28;20375;-62
2023/05/16 09:26:34;;;;;;;7.90;3.88;;;;;;;;;;5074000;28;20072;-62
2023/05/16 09:29:01;;;;;;;7.47;3.70;;;;;;;;;;5073801;28;20044;-61
2023/05/16 09:31:36;;;;;;;9.50;3.88;;;;;;;;;;5073827;28;20040;-62
2023/05/16 09:34:10;;;;;;;12.20;3.83;;;;;;;;;;5073754;28;20066;-62
2023/05/16 09:36:37;;;;;;;6.88;3.50;;;;;;;;;;5073653;28;20465;-62
2023/05/16 09:39:06;;;;;;;13.68;4.32;;;;;;;;;;5073738;28;20044;-62
2023/05/16 09:41:35;;;;;;;9.15;3.83;;;;;;;;;;5055875;28;20040;-62
2023/05/16 09:44:05;;;;;;;10.82;4.22;;;;;;;;;;5073417;28;20043;-62
2023/05/16 09:46:34;;;;;;;8.40;3.65;;;;;;;;;;5073491;28;20044;-62
2023/05/16 09:49:02;;;;;;;6.07;4.13;;;;;;;;;;5073330;28;20090;-62
2023/05/16 09:51:30;;;;;;;9.20;4.10;;;;;;;;;;5073660;28;20079;-62
2023/05/16 09:53:59;;;;;;;7.43;3.60;;;;;;;;;;5073394;28;20047;-62
2023/05/16 09:56:28;;;;;;;10.10;3.70;;;;;;;;;;5073405;28;20379;-62
2023/05/16 09:58:56;;;;;;;8.00;4.10;;;;;;;;;;5073912;28;20136;-62
2023/05/16 10:01:24;;;;;;;5.78;3.67;;;;;;;;;;5073423;28;20280;-62
2023/05/16 10:03:52;;;;;;;6.65;3.85;;;;;;;;;;5055376;28;20045;-61
2023/05/16 10:06:21;;;;;;;11.73;4.93;;;;;;;;;;5055078;28;20037;-61
2023/05/16 10:08:49;;;;;;;16.73;9.63;;;;;;;;;;5073198;28;20446;-61
2023/05/16 10:11:18;;;;;;;7.65;4.03;;;;;;;;;;5073105;28;20087;-61
2023/05/16 10:13:49;;;;;;;11.48;4.55;;;;;;;;;;5072951;28;20450;-61
2023/05/16 10:16:18;;;;;;;10.55;4.47;;;;;;;;;;5072884;28;20048;-61
2023/05/16 10:18:45;;;;;;;25.95;5.25;;;;;;;;;;5073158;28;20075;-60
2023/05/16 10:21:14;;;;;;;8.30;3.90;;;;;;;;;;5073093;28;20071;-60
2023/05/16 10:23:42;;;;;;;12.27;4.05;;;;;;;;;;5072894;28;20122;-60
2023/05/16 10:26:13;;;;;;;11.90;4.50;;;;;;;;;;5072756;28;20037;-60
2023/05/16 10:28:41;;;;;;;7.53;4.10;;;;;;;;;;5072792;28;20058;-60
2023/05/16 10:31:10;;;;;;;6.55;3.70;;;;;;;;;;5072768;28;20513;-60
2023/05/16 10:33:38;;;;;;;13.98;5.20;;;;;;;;;;5073026;28;20064;-60
2023/05/16 10:36:07;;;;;;;8.27;4.22;;;;;;;;;;5072478;28;20044;-60
2023/05/16 10:38:36;;;;;;;6.78;4.03;;;;;;;;;;5080269;28;20036;-60
2023/05/16 10:41:04;;;;;;;13.35;3.70;;;;;;;;;;5091089;28;20047;-61
2023/05/16 10:43:32;;;;;;;9.38;4.22;;;;;;;;;;5072933;28;20047;-62
2023/05/16 10:46:04;;;;;;;8.48;4.28;;;;;;;;;;5091148;28;20452;-61
2023/05/16 10:48:33;;;;;;;11.25;4.07;;;;;;;;;;5068223;28;20060;-62
2023/05/16 10:51:01;;;;;;;8.20;3.70;;;;;;;;;;5076910;28;20041;-62
2023/05/16 10:53:31;;;;;;;9.10;4.03;;;;;;;;;;5049639;28;20487;-62
2023/05/16 10:55:58;;;;;;;11.23;3.90;;;;;;;;;;5086515;28;20032;-63
2023/05/16 10:58:38;;;;;;;5.05;3.65;;;;;;;;;;5091693;28;20471;-62
2023/05/16 11:01:18;;;;;;;5.68;3.47;;;;;;;;;;5091958;28;20043;-62
2023/05/16 11:03:58;;;;;;;11.48;3.75;;;;;;;;;;5092286;28;20489;-62
2023/05/16 11:06:33;;;;;;;7.22;3.70;;;;;;;;;;5091951;28;20032;-62
2023/05/16 11:09:12;;;;;;;7.18;3.97;;;;;;;;;;5091823;28;20101;-62
2023/05/16 11:11:52;;;;;;;8.57;3.85;;;;;;;;;;5073413;28;20040;-62
2023/05/16 11:14:21;;;;;;;8.43;3.70;;;;;;;;;;5091661;28;20052;-62
2023/05/16 11:16:52;;;;;;;6.80;3.72;;;;;;;;;;5091700;28;20036;-62
2023/05/16 11:19:29;;;;;;;10.20;4.30;;;;;;;;;;5091441;28;20093;-62
2023/05/16 11:22:15;;;;;;;8.23;3.72;;;;;;;;;;5092049;28;20039;-62
2023/05/16 11:24:57;;;;;;;8.35;3.72;;;;;;;;;;5091800;28;20040;-62
2023/05/16 11:27:27;;;;;;;6.57;3.67;;;;;;;;;;5091907;28;20044;-62
2023/05/16 11:29:58;;;;;;;6.25;3.72;;;;;;;;;;5091490;28;20040;-62
2023/05/16 11:32:30;;;;;;;6.75;3.45;;;;;;;;;;5082481;28;20045;-63
2023/05/16 11:34:57;;;;;;;7.57;3.95;;;;;;;;;;5074955;28;20044;-62
2023/05/16 11:37:25;;;;;;;8.25;3.92;;;;;;;;;;5070536;28;20065;-62
2023/05/16 11:39:53;;;;;;;9.88;4.07;;;;;;;;;;5051397;28;20086;-62
2023/05/16 11:42:20;;;;;;;11.23;3.95;;;;;;;;;;5047677;28;20044;-63
2023/05/16 11:44:48;;;;;;;7.20;3.92;;;;;;;;;;5075234;28;20051;-62
2023/05/16 11:47:16;;;;;;;9.38;4.00;;;;;;;;;;5093744;28;20032;-62
2023/05/16 11:49:43;;;;;;;9.73;4.13;;;;;;;;;;5095603;28;20036;-63
2023/05/16 11:52:11;;;;;;;8.95;3.72;;;;;;;;;;5095386;28;20081;-62
2023/05/16 11:54:40;;;;;;;13.00;4.00;;;;;;;;;;5095554;28;20032;-62
2023/05/16 11:57:08;;;;;;;11.38;4.38;;;;;;;;;;5095414;28;20073;-62
2023/05/16 11:59:37;;;;;;;6.78;3.58;;;;;;;;;;5095517;28;20028;-62
2023/05/16 12:02:04;;;;;;;10.10;3.72;;;;;;;;;;5095170;28;20044;-62
2023/05/16 12:04:32;;;;;;;9.02;4.28;;;;;;;;;;5095280;28;20032;-62
2023/05/16 12:07:00;;;;;;;9.48;3.80;;;;;;;;;;5095156;28;20048;-63
2023/05/16 12:09:28;;;;;;;9.88;3.60;;;;;;;;;;5076805;28;20055;-62
2023/05/16 12:11:56;;;;;;;11.45;4.47;;;;;;;;;;5095409;28;20085;-62
2023/05/16 12:14:24;;;;;;;9.45;3.97;;;;;;;;;;5095037;28;20434;-62
2023/05/16 12:16:52;;;;;;;15.05;5.30;;;;;;;;;;5077407;28;20083;-62
2023/05/16 12:19:20;;;;;;;9.88;4.30;;;;;;;;;;5094989;28;20457;-62
2023/05/16 12:21:48;;;;;;;8.23;3.50;;;;;;;;;;5077471;28;20032;-63
2023/05/16 12:24:16;;;;;;;8.68;3.53;;;;;;;;;;5074549;28;20048;-62
2023/05/16 12:26:46;;;;;;;11.77;3.58;;;;;;;;;;5056431;28;20033;-62
2023/05/16 12:29:13;;;;;;;9.18;4.20;;;;;;;;;;5074542;28;20044;-62
2023/05/16 12:31:41;;;;;;;12.05;4.47;;;;;;;;;;5074587;28;20044;-62
2023/05/16 12:34:15;;;;;;;10.00;3.60;;;;;;;;;;5056502;28;20044;-63
2023/05/16 12:36:43;;;;;;;9.18;3.55;;;;;;;;;;5053612;28;20453;-62
2023/05/16 12:39:11;;;;;;;13.00;3.30;;;;;;;;;;5074231;28;20039;-62
2023/05/16 12:41:41;;;;;;;9.52;3.70;;;;;;;;;;5073400;28;20041;-62
2023/05/16 12:44:18;;;;;;;9.38;3.80;;;;;;;;;;5074232;28;20044;-61
2023/05/16 12:46:50;;;;;;;8.18;3.40;;;;;;;;;;5088313;28;20036;-62
2023/05/16 12:49:21;;;;;;;7.90;3.92;;;;;;;;;;5094396;28;20036;-62
2023/05/16 12:51:53;;;;;;;10.15;3.60;;;;;;;;;;5094456;28;20047;-61
2023/05/16 12:54:21;;;;;;;8.80;3.30;;;;;;;;;;5067428;28;20077;-63
2023/05/16 12:56:49;;;;;;;9.07;3.33;;;;;;;;;;5094120;28;20040;-63
2023/05/16 12:59:18;;;;;;;11.40;3.88;;;;;;;;;;5076068;28;20036;-62
2023/05/16 13:01:46;;;;;;;15.15;3.55;;;;;;;;;;5094203;28;20040;-62
2023/05/16 13:04:17;;;;;;;9.60;3.53;;;;;;;;;;5094000;28;20050;-62
2023/05/16 13:06:46;;;;;;;12.10;3.65;;;;;;;;;;5093945;28;20539;-62
2023/05/16 13:09:26;;;;;;;10.52;3.53;;;;;;;;;;5093874;28;20043;-62
2023/05/16 13:11:58;;;;;;;13.48;4.15;;;;;;;;;;5091296;28;20040;-63
2023/05/16 13:14:26;;;;;;;10.05;3.70;;;;;;;;;;5085274;28;20033;-63
2023/05/16 13:16:53;;;;;;;9.20;4.00;;;;;;;;;;5056097;28;20051;-63
2023/05/16 13:19:22;;;;;;;17.27;4.68;;;;;;;;;;5071469;28;20037;-61
2023/05/16 13:21:51;;;;;;;7.82;4.13;;;;;;;;;;5064535;28;20036;-62
2023/05/16 13:24:18;;;;;;;10.48;4.75;;;;;;;;;;5065890;28;20041;-62
2023/05/16 13:26:46;;;;;;;7.13;4.72;;;;;;;;;;5079944;28;20043;-62
2023/05/16 13:29:13;;;;;;;11.77;4.20;;;;;;;;;;5093173;28;20071;-62
2023/05/16 13:31:41;;;;;;;12.65;3.42;;;;;;;;;;5092913;28;20044;-63
2023/05/16 13:34:13;;;;;;;12.32;7.55;;;;;;;;;;5060202;28;20521;-63
2023/05/16 13:36:40;;;;;;;14.20;3.55;;;;;;;;;;5093837;28;20086;-62
2023/05/16 13:39:20;;;;;;;13.30;4.07;;;;;;;;;;5094063;28;20410;-62
2023/05/16 13:41:48;;;;;;;9.50;3.55;;;;;;;;;;5072916;28;20093;-62
2023/05/16 13:44:16;;;;;;;11.18;4.35;;;;;;;;;;5073079;28;20049;-62
2023/05/16 13:46:44;;;;;;;9.13;3.83;;;;;;;;;;5072896;28;20037;-63
2023/05/16 13:49:12;;;;;;;15.57;5.85;;;;;;;;;;5072843;28;20101;-62
2023/05/16 13:51:39;;;;;;;10.20;3.60;;;;;;;;;;5072409;28;20051;-62
2023/05/16 13:54:06;;;;;;;10.05;3.53;;;;;;;;;;5055007;28;20394;-63
2023/05/16 13:56:34;;;;;;;8.48;3.90;;;;;;;;;;5038951;28;20393;-63
2023/05/16 13:59:02;;;;;;;10.10;3.85;;;;;;;;;;5072828;28;20051;-63
2023/05/16 14:01:33;;;;;;;9.95;3.80;;;;;;;;;;5072752;28;20321;-63
2023/05/16 14:04:01;;;;;;;13.50;4.60;;;;;;;;;;5081965;28;20041;-63
2023/05/16 14:06:30;;;;;;;11.80;5.20;;;;;;;;;;5072886;28;20567;-63
2023/05/16 14:08:57;;;;;;;16.77;6.85;;;;;;;;;;5064861;28;20045;-63
2023/05/16 14:11:26;;;;;;;15.82;5.70;;;;;;;;;;5072311;28;20040;-62
2023/05/16 14:13:56;;;;;;;15.05;5.40;;;;;;;;;;5072151;28;20483;-62
2023/05/16 14:16:24;;;;;;;9.82;4.85;;;;;;;;;;5072385;28;20044;-62
2023/05/16 14:18:51;;;;;;;10.77;4.50;;;;;;;;;;5072572;28;20033;-63
2023/05/16 14:21:19;;;;;;;8.52;3.95;;;;;;;;;;5072316;28;20036;-62
2023/05/16 14:23:47;;;;;;;10.20;4.07;;;;;;;;;;5072484;28;20048;-62
2023/05/16 14:26:15;;;;;;;11.10;4.50;;;;;;;;;;5054401;28;20725;-62
2023/05/16 14:28:43;;;;;;;13.10;4.43;;;;;;;;;;5072276;28;20468;-62
2023/05/16 14:31:10;;;;;;;13.35;5.15;;;;;;;;;;5072060;28;20032;-62
2023/05/16 14:33:39;;;;;;;10.70;4.60;;;;;;;;;;5072362;28;20044;-62
2023/05/16 14:36:07;;;;;;;18.17;4.70;;;;;;;;;;5053781;28;20409;-63
2023/05/16 14:38:35;;;;;;;12.95;4.97;;;;;;;;;;5072271;28;20125;-62
2023/05/16 14:41:04;;;;;;;13.50;4.40;;;;;;;;;;5072456;28;20064;-61
2023/05/16 14:43:31;;;;;;;15.00;4.70;;;;;;;;;;5071993;28;20490;-62
2023/05/16 14:45:59;;;;;;;12.35;4.85;;;;;;;;;;5072138;28;20600;-63
2023/05/16 14:48:28;;;;;;;15.52;5.18;;;;;;;;;;5072005;28;20049;-60
2023/05/16 14:50:55;;;;;;;14.70;7.03;;;;;;;;;;5071877;28;20044;-61